Thomas, Oklahoma
Current Conditions -  °F | °C
As of 7:35 AM on Saturday 25 Oct 2014 (Local Time) from KOJA Reporting Station
Clear Clear  
Wind Chill: 61°   Ceiling: Unl
Heat Index: 61°   Visibility: 10mi
Dew Point: 54°   Wind: 7mph
Humidity: 77%   Direction: 220°SW
Pressure: 30.07"   Gusts: NA
Location:  35.74°N, 98.75°W
Report Text: KOJA 251235Z AUTO 22006KT 10SM CLR 16/12 A3007 RMK AO2
Loading
Personal Weather Stations






























Interactive Weather Map
Tropical Storm Tracking
New forecast layout! Learn more

10-Day Weather Forecast

Advertisements
Track Severe Weather on mobile